Time;durP1;ratioP1;P1;durP2;ratioP2;P2;SDS_P1;SDS_P2;PMS_P1;PMS_P2;Temp;Humidity;BMP_temperature;BMP_pressure;BME280_temperature;BME280_humidity;BME280_pressure;Samples;Min_cycle;Max_cycle;Signal;HPM_P1;HPM_P2
2023/12/05 00:02:24;;;;;;;;;;;;;;;-9.19;80.04;99781.94;5002734;28;20606;-74
2023/12/05 00:04:50;;;;;;;;;;;;;;;-9.21;80.03;99773.28;5019427;28;19936;-76
2023/12/05 00:07:19;;;;;;;;;;;;;;;-9.24;79.66;99770.91;5020263;28;19929;-76
2023/12/05 00:09:45;;;;;;;;;;;;;;;-9.22;79.74;99780.41;5021211;28;20471;-76
2023/12/05 00:12:10;;;;;;;;;;;;;;;-9.25;79.40;99783.34;5018905;28;20024;-75
2023/12/05 00:14:36;;;;;;;;;;;;;;;-9.28;79.47;99781.81;5021156;28;19964;-76
2023/12/05 00:17:04;;;;;;;;;;;;;;;-9.25;79.32;99783.34;5021485;28;20031;-76
2023/12/05 00:19:30;;;;;;;;;;;;;;;-9.29;79.33;99780.16;5003733;28;20323;-76
2023/12/05 00:21:56;;;;;;;;;;;;;;;-9.27;79.45;99774.72;5015553;28;20032;-76
2023/12/05 00:24:22;;;;;;;;;;;;;;;-9.28;79.30;99773.88;5019521;28;20844;-74
2023/12/05 00:26:47;;;;;;;;;;;;;;;-9.27;79.46;99769.41;5019103;28;20027;-73
2023/12/05 00:29:13;;;;;;;;;;;;;;;-9.26;79.54;99771.09;5018416;28;20288;-73
2023/12/05 00:31:39;;;;;;;;;;;;;;;-9.22;79.68;99761.00;5014814;28;19930;-74
2023/12/05 00:34:07;;;;;;;;;;;;;;;-9.15;79.83;99770.06;4998183;28;19929;-73
2023/12/05 00:36:33;;;;;;;;;;;;;;;-9.08;79.58;99763.16;5012483;28;20020;-74
2023/12/05 00:38:59;;;;;;;;;;;;;;;-9.08;79.67;99749.09;5019441;28;20487;-74
2023/12/05 00:41:25;;;;;;;;;;;;;;;-9.05;79.25;99751.44;5011644;28;19929;-73
2023/12/05 00:43:51;;;;;;;;;;;;;;;-9.01;79.39;99766.91;5019090;28;19940;-73
2023/12/05 00:46:18;;;;;;;;;;;;;;;-9.03;79.25;99763.56;5021504;28;19932;-74
2023/12/05 00:48:44;;;;;;;;;;;;;;;-9.03;79.47;99771.53;5020015;28;19929;-75
2023/12/05 00:51:11;;;;;;;;;;;;;;;-9.03;79.48;99758.28;5008009;28;20027;-75
2023/12/05 00:53:37;;;;;;;;;;;;;;;-9.02;79.25;99764.41;5020714;28;19951;-73
2023/12/05 00:56:03;;;;;;;;;;;;;;;-9.01;79.34;99764.25;5040223;28;19975;-74
2023/12/05 00:58:30;;;;;;;;;;;;;;;-8.99;79.32;99764.09;5021789;28;19991;-74
2023/12/05 01:00:55;;;;;;;;;;;;;;;-8.95;79.47;99764.63;5022372;28;20041;-75
2023/12/05 01:03:21;;;;;;;;;;;;;;;-8.97;79.49;99765.63;5033626;28;20029;-76
2023/12/05 01:05:47;;;;;;;;;;;;;;;-8.95;79.09;99757.53;5036010;28;19929;-75
2023/12/05 01:08:15;;;;;;;;;;;;;;;-9.00;79.15;99768.56;5022025;28;19936;-75
2023/12/05 01:10:40;;;;;;;;;;;;;;;-9.04;79.45;99755.75;5021131;28;20278;-76
2023/12/05 01:13:06;;;;;;;;;;;;;;;-9.04;79.49;99759.25;5023310;28;20039;-76
2023/12/05 01:15:32;;;;;;;;;;;;;;;-9.04;79.83;99753.97;5018810;28;19930;-76
2023/12/05 01:17:58;;;;;;;;;;;;;;;-9.04;79.76;99755.75;5020037;28;20426;-75
2023/12/05 01:20:24;;;;;;;;;;;;;;;-9.02;79.78;99753.78;5020643;28;20316;-75
2023/12/05 01:22:50;;;;;;;;;;;;;;;-8.90;79.89;99759.72;5023719;28;20054;-75
2023/12/05 01:25:17;;;;;;;;;;;;;;;-8.82;79.74;99757.16;5020206;28;19929;-73
2023/12/05 01:27:43;;;;;;;;;;;;;;;-8.80;79.36;99759.69;5023403;28;19937;-74
2023/12/05 01:30:10;;;;;;;;;;;;;;;-8.79;79.26;99762.16;5024561;28;19929;-76
2023/12/05 01:32:36;;;;;;;;;;;;;;;-8.79;79.22;99764.81;5022728;28;19933;-76
2023/12/05 01:35:02;;;;;;;;;;;;;;;-8.84;79.14;99759.13;5019060;28;19935;-75
2023/12/05 01:37:29;;;;;;;;;;;;;;;-8.87;79.29;99767.38;5020970;28;19936;-75
2023/12/05 01:39:55;;;;;;;;;;;;;;;-8.90;79.25;99759.72;5011384;28;19996;-75
2023/12/05 01:42:22;;;;;;;;;;;;;;;-8.94;79.25;99772.44;5022130;28;20466;-75
2023/12/05 01:44:48;;;;;;;;;;;;;;;-8.89;79.93;99775.47;5025724;28;20004;-74
2023/12/05 01:47:16;;;;;;;;;;;;;;;-8.85;79.57;99768.88;5022486;28;20023;-73
2023/12/05 01:49:43;;;;;;;;;;;;;;;-8.86;79.50;99772.53;5020983;28;20342;-74
2023/12/05 01:52:09;;;;;;;;;;;;;;;-8.84;79.35;99777.69;5018981;28;19929;-73
2023/12/05 01:54:37;;;;;;;;;;;;;;;-8.85;79.55;99773.38;5024341;28;20019;-75
2023/12/05 01:57:04;;;;;;;;;;;;;;;-8.86;79.37;99777.00;5018657;28;20396;-75
2023/12/05 01:59:32;;;;;;;;;;;;;;;-8.86;79.71;99780.47;5003008;28;19987;-73
2023/12/05 02:01:58;;;;;;;;;;;;;;;-8.90;79.95;99776.47;5022175;28;19933;-74
2023/12/05 02:04:24;;;;;;;;;;;;;;;-8.83;79.97;99776.69;5020441;28;20329;-74
2023/12/05 02:06:51;;;;;;;;;;;;;;;-8.77;79.93;99767.31;5023200;28;20316;-74
2023/12/05 02:09:17;;;;;;;;;;;;;;;-8.77;79.65;99778.75;5023540;28;19933;-75
2023/12/05 02:11:43;;;;;;;;;;;;;;;-8.77;79.74;99769.97;5021511;28;19929;-76
2023/12/05 02:14:09;;;;;;;;;;;;;;;-8.78;79.97;99774.44;5023213;28;20000;-75
2023/12/05 02:16:37;;;;;;;;;;;;;;;-8.72;80.30;99773.84;5021840;28;20385;-75
2023/12/05 02:19:15;;;;;;;;;;;;;;;-8.72;79.83;99768.53;5020458;28;19976;-75
2023/12/05 02:21:43;;;;;;;;;;;;;;;-8.77;79.72;99770.78;5020573;28;19937;-75
2023/12/05 02:24:25;;;;;;;;;;;;;;;-8.80;79.88;99776.41;5018402;28;19983;-75
2023/12/05 02:26:53;;;;;;;;;;;;;;;-8.80;79.96;99779.06;4997069;28;19929;-73
2023/12/05 02:29:21;;;;;;;;;;;;;;;-8.80;80.01;99768.44;5013534;28;19929;-74
2023/12/05 02:31:47;;;;;;;;;;;;;;;-8.80;79.68;99768.44;5022180;28;20051;-74
2023/12/05 02:34:13;;;;;;;;;;;;;;;-8.77;79.58;99762.03;5022951;28;19944;-73
2023/12/05 02:36:45;;;;;;;;;;;;;;;-8.72;79.77;99760.59;5023458;28;19929;-76
2023/12/05 02:39:14;;;;;;;;;;;;;;;-8.66;79.83;99764.47;5021152;28;20380;-76
2023/12/05 02:41:42;;;;;;;;;;;;;;;-8.63;79.89;99766.81;5020724;28;19929;-74
2023/12/05 02:44:10;;;;;;;;;;;;;;;-8.60;79.50;99773.59;5016520;28;19960;-74
2023/12/05 02:46:39;;;;;;;;;;;;;;;-8.60;79.48;99777.09;5023279;28;20244;-75
2023/12/05 02:49:05;;;;;;;;;;;;;;;-8.63;79.26;99766.81;5020935;28;19936;-73
2023/12/05 02:51:31;;;;;;;;;;;;;;;-8.65;79.70;99771.44;5020565;28;20027;-73
2023/12/05 02:54:01;;;;;;;;;;;;;;;-8.61;79.69;99775.44;4999804;28;20590;-75
2023/12/05 02:56:28;;;;;;;;;;;;;;;-8.59;79.59;99784.06;5004844;28;20024;-75
2023/12/05 02:58:55;;;;;;;;;;;;;;;-8.57;79.59;99775.97;5022371;28;19995;-73
2023/12/05 03:01:21;;;;;;;;;;;;;;;-8.59;79.67;99777.94;5036545;28;19933;-76
2023/12/05 03:03:49;;;;;;;;;;;;;;;-8.62;80.06;99779.09;5014714;28;20563;-75
2023/12/05 03:06:15;;;;;;;;;;;;;;;-8.62;79.98;99776.44;5016594;28;19929;-75
2023/12/05 03:08:41;;;;;;;;;;;;;;;-8.66;79.77;99776.88;5019174;28;19983;-75
2023/12/05 03:11:07;;;;;;;;;;;;;;;-8.65;80.25;99782.03;5020161;28;20047;-75
2023/12/05 03:13:33;;;;;;;;;;;;;;;-8.60;80.08;99786.88;5020471;28;19935;-75
2023/12/05 03:15:59;;;;;;;;;;;;;;;-8.56;79.56;99783.78;5017265;28;20463;-74
2023/12/05 03:18:25;;;;;;;;;;;;;;;-8.59;79.27;99784.06;5017243;28;20038;-76
2023/12/05 03:20:52;;;;;;;;;;;;;;;-8.61;79.32;99786.06;5029996;28;20035;-76
2023/12/05 03:23:18;;;;;;;;;;;;;;;-8.60;79.48;99790.38;5012317;28;19937;-74
2023/12/05 03:25:44;;;;;;;;;;;;;;;-8.57;79.67;99786.59;5019599;28;19928;-74
2023/12/05 03:28:10;;;;;;;;;;;;;;;-8.51;79.58;99787.78;5019639;28;20039;-74
2023/12/05 03:30:36;;;;;;;;;;;;;;;-8.53;79.23;99792.41;5020145;28;20027;-74
2023/12/05 03:33:02;;;;;;;;;;;;;;;-8.52;79.98;99791.41;5021546;28;20038;-74
2023/12/05 03:35:28;;;;;;;;;;;;;;;-8.55;79.59;99789.91;5020868;28;19940;-75
2023/12/05 03:37:55;;;;;;;;;;;;;;;-8.70;79.90;99771.88;5021200;28;19935;-76
2023/12/05 03:40:21;;;;;;;;;;;;;;;-8.63;79.93;99788.03;5018988;28;19973;-75
2023/12/05 03:42:47;;;;;;;;;;;;;;;-8.62;79.87;99794.16;5019960;28;20467;-75
2023/12/05 03:45:13;;;;;;;;;;;;;;;-8.66;79.79;99793.63;5035931;28;19929;-76
2023/12/05 03:47:39;;;;;;;;;;;;;;;-8.70;80.05;99795.75;5017101;28;19934;-76
2023/12/05 03:50:06;;;;;;;;;;;;;;;-8.78;80.29;99782.38;5021368;28;19951;-76
2023/12/05 03:52:31;;;;;;;;;;;;;;;-8.63;80.37;99800.44;5020228;28;19929;-74
2023/12/05 03:54:59;;;;;;;;;;;;;;;-8.65;80.53;99805.91;5013880;28;19987;-75
2023/12/05 03:57:25;;;;;;;;;;;;;;;-8.65;80.51;99805.06;5020345;28;19929;-75
2023/12/05 03:59:51;;;;;;;;;;;;;;;-8.66;80.46;99800.75;5018758;28;20392;-75
2023/12/05 04:02:17;;;;;;;;;;;;;;;-8.64;80.65;99804.06;5015339;28;19976;-74
2023/12/05 04:04:42;;;;;;;;;;;;;;;-8.60;80.63;99797.47;5018155;28;19936;-74
2023/12/05 04:07:09;;;;;;;;;;;;;;;-8.61;80.33;99801.97;5020246;28;19929;-74
2023/12/05 04:09:34;;;;;;;;;;;;;;;-8.66;79.62;99808.69;5019586;28;19956;-74
2023/12/05 04:12:03;;;;;;;;;;;;;;;-8.75;79.21;99799.81;5015878;28;19929;-76
2023/12/05 04:14:29;;;;;;;;;;;;;;;-8.77;79.52;99810.56;5020708;28;19929;-76
2023/12/05 04:16:55;;;;;;;;;;;;;;;-8.76;79.40;99806.94;5020823;28;20359;-74
2023/12/05 04:19:21;;;;;;;;;;;;;;;-8.77;79.39;99807.09;5034629;28;20036;-75
2023/12/05 04:21:47;;;;;;;;;;;;;;;-8.79;79.65;99803.75;5016672;28;19935;-75
2023/12/05 04:24:13;;;;;;;;;;;;;;;-8.86;79.48;99808.81;5022704;28;19936;-76
2023/12/05 04:26:39;;;;;;;;;;;;;;;-8.87;79.12;99794.72;5020448;28;19975;-77
2023/12/05 04:29:06;;;;;;;;;;;;;;;-8.85;79.47;99810.47;5018790;28;19936;-77
2023/12/05 04:31:32;;;;;;;;;;;;;;;-8.87;79.42;99807.97;5000788;28;20453;-76
2023/12/05 04:33:58;;;;;;;;;;;;;;;-8.92;78.87;99820.00;5020463;28;19933;-76
2023/12/05 04:36:24;;;;;;;;;;;;;;;-8.93;79.12;99813.88;5015368;28;20489;-76
2023/12/05 04:38:50;;;;;;;;;;;;;;;-8.93;79.04;99820.97;4995691;28;19975;-76
2023/12/05 04:41:16;;;;;;;;;;;;;;;-8.92;79.29;99822.66;5027182;28;20463;-76
2023/12/05 04:43:42;;;;;;;;;;;;;;;-8.88;79.48;99824.03;4999829;28;19929;-76
2023/12/05 04:46:09;;;;;;;;;;;;;;;-8.86;78.92;99832.66;5033669;28;19988;-76
2023/12/05 04:48:35;;;;;;;;;;;;;;;-8.88;78.81;99827.50;5015673;28;20081;-76
2023/12/05 04:51:02;;;;;;;;;;;;;;;-8.88;79.14;99824.03;5007397;28;19938;-75
2023/12/05 04:53:28;;;;;;;;;;;;;;;-8.92;78.82;99823.50;5022699;28;19944;-74
2023/12/05 04:55:54;;;;;;;;;;;;;;;-8.96;79.29;99838.03;5027971;28;19929;-74
2023/12/05 04:58:20;;;;;;;;;;;;;;;-8.97;79.45;99831.88;5022497;28;19935;-74
2023/12/05 05:00:45;;;;;;;;;;;;;;;-8.84;79.57;99839.47;5022069;28;19936;-74
2023/12/05 05:03:13;;;;;;;;;;;;;;;-8.77;79.04;99839.72;5022006;28;19929;-74
2023/12/05 05:05:39;;;;;;;;;;;;;;;-8.75;78.86;99836.94;5020518;28;19929;-76
2023/12/05 05:08:06;;;;;;;;;;;;;;;-8.72;78.56;99840.13;5022645;28;19929;-76
2023/12/05 05:10:31;;;;;;;;;;;;;;;-8.68;78.64;99843.28;5022704;28;19929;-76
2023/12/05 05:12:58;;;;;;;;;;;;;;;-8.72;78.81;99842.78;5020099;28;20015;-76
2023/12/05 05:15:24;;;;;;;;;;;;;;;-8.75;78.47;99847.53;5014984;28;19929;-75
2023/12/05 05:17:49;;;;;;;;;;;;;;;-8.78;78.59;99847.84;5005785;28;19930;-75
2023/12/05 05:20:17;;;;;;;;;;;;;;;-8.80;78.83;99847.97;4998613;28;19935;-75
2023/12/05 05:22:43;;;;;;;;;;;;;;;-8.77;78.25;99852.97;5011407;28;20384;-75
2023/12/05 05:25:09;;;;;;;;;;;;;;;-8.76;77.98;99852.00;5017669;28;19935;-77
2023/12/05 05:27:35;;;;;;;;;;;;;;;-8.77;77.46;99854.81;4998339;28;19933;-75
2023/12/05 05:30:01;;;;;;;;;;;;;;;-8.84;77.42;99862.50;5022124;28;19956;-76
2023/12/05 05:32:30;;;;;;;;;;;;;;;-8.94;77.36;99867.00;5011503;28;19929;-75
2023/12/05 05:34:58;;;;;;;;;;;;;;;-9.03;77.83;99872.22;5012895;28;19983;-76
2023/12/05 05:37:25;;;;;;;;;;;;;;;-9.04;78.04;99875.84;5003811;28;20391;-75
2023/12/05 05:39:53;;;;;;;;;;;;;;;-9.02;78.25;99881.00;5006373;28;20003;-76
2023/12/05 05:42:19;;;;;;;;;;;;;;;-9.04;77.86;99877.66;5008120;28;20375;-76
2023/12/05 05:44:46;;;;;;;;;;;;;;;-9.08;77.87;99881.59;5032483;28;20422;-74
2023/12/05 05:47:11;;;;;;;;;;;;;;;-9.19;77.60;99885.25;5003865;28;19929;-74
2023/12/05 05:49:38;;;;;;;;;;;;;;;-9.29;77.89;99891.41;5012721;28;19929;-74
2023/12/05 05:52:04;;;;;;;;;;;;;;;-9.34;77.96;99887.50;5008632;28;20452;-74
2023/12/05 05:54:32;;;;;;;;;;;;;;;-9.36;78.28;99897.41;5008027;28;19933;-74
2023/12/05 05:56:57;;;;;;;;;;;;;;;-9.34;78.35;99898.09;5018661;28;20044;-76
2023/12/05 05:59:23;;;;;;;;;;;;;;;-9.29;78.38;99906.44;5018345;28;20035;-74
2023/12/05 06:01:49;;;;;;;;;;;;;;;-9.20;78.36;99905.59;5010747;28;20039;-74
2023/12/05 06:04:15;;;;;;;;;;;;;;;-9.16;77.97;99904.31;5016016;28;19983;-74
2023/12/05 06:06:43;;;;;;;;;;;;;;;-9.14;77.75;99917.44;5021359;28;19940;-74
2023/12/05 06:09:09;;;;;;;;;;;;;;;-9.17;77.49;99910.59;5014499;28;20382;-75
2023/12/05 06:11:37;;;;;;;;;;;;;;;-9.24;77.70;99917.47;5015675;28;19971;-74
2023/12/05 06:14:03;;;;;;;;;;;;;;;-9.34;77.38;99917.50;5017234;28;19930;-75
2023/12/05 06:16:29;;;;;;;;;;;;;;;-9.46;77.49;99921.28;5016739;28;20306;-76
2023/12/05 06:18:57;;;;;;;;;;;;;;;-9.56;78.19;99926.59;5018388;28;19956;-76
2023/12/05 06:21:23;;;;;;;;;;;;;;;-9.61;78.27;99931.44;5026154;28;19929;-75
2023/12/05 06:23:49;;;;;;;;;;;;;;;-9.66;78.42;99934.53;5025446;28;19940;-74
2023/12/05 06:26:15;;;;;;;;;;;;;;;-9.70;78.56;99933.13;5015230;28;20393;-74
2023/12/05 06:28:42;;;;;;;;;;;;;;;-9.74;78.53;99934.38;5022966;28;19929;-76
2023/12/05 06:31:08;;;;;;;;;;;;;;;-9.73;78.51;99936.06;5004524;28;20384;-75
2023/12/05 06:33:34;;;;;;;;;;;;;;;-9.73;78.24;99938.69;5019974;28;19929;-75
2023/12/05 06:36:00;;;;;;;;;;;;;;;-9.75;78.06;99943.31;5030409;28;20025;-76
2023/12/05 06:38:26;;;;;;;;;;;;;;;-9.78;78.22;99943.59;4997740;28;19979;-75
2023/12/05 06:40:52;;;;;;;;;;;;;;;-9.79;77.93;99955.16;5023909;28;19929;-75
2023/12/05 06:43:18;;;;;;;;;;;;;;;-9.83;77.79;99963.38;5018341;28;19984;-75
2023/12/05 06:45:46;;;;;;;;;;;;;;;-9.81;78.05;99965.88;5019302;28;19941;-76
2023/12/05 06:48:12;;;;;;;;;;;;;;;-9.80;77.77;99964.06;5018037;28;20389;-75
2023/12/05 06:50:38;;;;;;;;;;;;;;;-9.97;77.93;99954.00;5018003;28;19988;-75
2023/12/05 06:53:04;;;;;;;;;;;;;;;-9.91;78.08;99973.78;5022076;28;19929;-76
2023/12/05 06:55:30;;;;;;;;;;;;;;;-9.94;78.35;99970.59;5020838;28;19933;-75
2023/12/05 06:57:56;;;;;;;;;;;;;;;-9.93;78.17;99980.19;5021357;28;19984;-74
2023/12/05 07:00:22;;;;;;;;;;;;;;;-9.98;78.38;99976.16;5000913;28;19929;-74
2023/12/05 07:02:50;;;;;;;;;;;;;;;-10.02;78.16;99973.91;5007985;28;19928;-73
2023/12/05 07:05:16;;;;;;;;;;;;;;;-10.06;78.46;99981.31;5020695;28;19929;-74
2023/12/05 07:07:42;;;;;;;;;;;;;;;-10.10;78.38;99982.53;5023027;28;20435;-74
2023/12/05 07:10:08;;;;;;;;;;;;;;;-10.14;78.63;99987.28;5038727;28;19933;-74
2023/12/05 07:12:34;;;;;;;;;;;;;;;-10.19;78.57;99996.59;5015325;28;19948;-74
2023/12/05 07:15:03;;;;;;;;;;;;;;;-10.19;78.57;99999.25;5029116;28;20032;-74
2023/12/05 07:17:29;;;;;;;;;;;;;;;-10.20;78.51;99984.34;5018035;28;19936;-74
2023/12/05 07:19:57;;;;;;;;;;;;;;;-10.09;78.29;99993.97;5015674;28;19929;-74
2023/12/05 07:22:23;;;;;;;;;;;;;;;-10.08;78.29;99985.88;5014171;28;19932;-74
2023/12/05 07:24:49;;;;;;;;;;;;;;;-10.09;78.28;99999.25;5019093;28;19975;-74
2023/12/05 07:27:15;;;;;;;;;;;;;;;-10.14;77.93;99992.56;5017199;28;19929;-74
2023/12/05 07:29:41;;;;;;;;;;;;;;;-10.18;78.28;99995.63;5019787;28;20046;-76
2023/12/05 07:32:06;;;;;;;;;;;;;;;-10.16;78.64;100005.06;5023238;28;20317;-77
2023/12/05 07:34:32;;;;;;;;;;;;;;;-10.12;78.43;100003.00;5022442;28;19929;-74
2023/12/05 07:37:00;;;;;;;;;;;;;;;-10.16;78.39;100007.72;5006219;28;19936;-74
2023/12/05 07:39:28;;;;;;;;;;;;;;;-10.20;78.47;100008.16;5023009;28;19936;-74
2023/12/05 07:41:56;;;;;;;;;;;;;;;-10.19;78.88;100015.94;5018512;28;19929;-74
2023/12/05 07:44:25;;;;;;;;;;;;;;;-10.16;78.63;100022.78;5019938;28;20451;-74
2023/12/05 07:46:51;;;;;;;;;;;;;;;-10.14;78.65;100020.81;5020348;28;19929;-74
2023/12/05 07:49:17;;;;;;;;;;;;;;;-10.13;78.20;100020.69;5021271;28;19983;-74
2023/12/05 07:51:43;;;;;;;;;;;;;;;-10.09;78.68;100023.88;5007968;28;19929;-74
2023/12/05 07:54:10;;;;;;;;;;;;;;;-10.06;78.11;100023.66;5003877;28;20569;-75
2023/12/05 07:56:36;;;;;;;;;;;;;;;-10.08;78.18;100028.19;5023044;28;19936;-74
2023/12/05 07:59:02;;;;;;;;;;;;;;;-10.05;78.10;100035.03;5023386;28;19959;-77
2023/12/05 08:01:28;;;;;;;;;;;;;;;-10.03;78.27;100035.75;5003989;28;20552;-77
2023/12/05 08:03:56;;;;;;;;;;;;;;;-10.04;78.37;100040.22;5019004;28;19929;-77
2023/12/05 08:06:22;;;;;;;;;;;;;;;-10.08;77.98;100038.78;5017279;28;19933;-74
2023/12/05 08:08:48;;;;;;;;;;;;;;;-10.08;78.25;100048.56;5016032;28;20475;-74
2023/12/05 08:11:17;;;;;;;;;;;;;;;-10.06;78.48;100052.75;5017158;28;19929;-77
2023/12/05 08:13:42;;;;;;;;;;;;;;;-10.03;78.10;100057.75;5032388;28;20059;-78
2023/12/05 08:16:09;;;;;;;;;;;;;;;-9.97;78.18;100054.56;5020041;28;20016;-77
2023/12/05 08:18:35;;;;;;;;;;;;;;;-9.87;77.82;100057.22;4998292;28;19983;-77
2023/12/05 08:21:01;;;;;;;;;;;;;;;-9.76;77.95;100055.44;5011961;28;20769;-78
2023/12/05 08:23:27;;;;;;;;;;;;;;;-9.72;77.29;100052.41;5012358;28;20472;-77
2023/12/05 08:25:53;;;;;;;;;;;;;;;-9.74;77.26;100040.25;5018027;28;19933;-77
2023/12/05 08:28:23;;;;;;;;;;;;;;;-9.51;77.13;100058.56;5017786;28;19929;-77
2023/12/05 08:30:49;;;;;;;;;;;;;;;-9.43;76.33;100061.34;5021475;28;19929;-77
2023/12/05 08:33:15;;;;;;;;;;;;;;;-9.29;76.46;100063.59;5017697;28;20048;-77
2023/12/05 08:35:41;;;;;;;;;;;;;;;-9.13;75.59;100073.66;5015148;28;19929;-75
2023/12/05 08:38:07;;;;;;;;;;;;;;;-8.98;75.50;100073.19;5019488;28;19936;-75
2023/12/05 08:40:33;;;;;;;;;;;;;;;-8.93;75.08;100083.38;5023090;28;19968;-74
2023/12/05 08:42:59;;;;;;;;;;;;;;;-8.94;75.23;100076.41;5015220;28;19961;-74
2023/12/05 08:45:27;;;;;;;;;;;;;;;-8.97;75.45;100073.06;5010466;28;19929;-74
2023/12/05 08:47:54;;;;;;;;;;;;;;;-8.90;75.80;100080.44;4993144;28;20353;-75
2023/12/05 08:50:20;;;;;;;;;;;;;;;-8.75;75.84;100084.31;5004916;28;19929;-74
2023/12/05 08:52:46;;;;;;;;;;;;;;;-8.66;75.29;100082.66;4997593;28;20044;-78
2023/12/05 08:55:12;;;;;;;;;;;;;;;-8.70;75.15;100082.09;5015535;28;19980;-78
2023/12/05 08:57:37;;;;;;;;;;;;;;;-8.69;75.60;100083.78;5014889;28;19967;-78
2023/12/05 09:00:04;;;;;;;;;;;;;;;-8.58;75.44;100090.72;5014347;28;19975;-78
2023/12/05 09:02:32;;;;;;;;;;;;;;;-8.52;75.58;100083.16;5006364;28;19933;-78
2023/12/05 09:04:58;;;;;;;;;;;;;;;-8.43;75.77;100084.94;5025098;28;19964;-78
2023/12/05 09:07:24;;;;;;;;;;;;;;;-8.37;75.67;100079.03;5037219;28;20194;-77
2023/12/05 09:09:51;;;;;;;;;;;;;;;-8.31;75.29;100083.78;5022657;28;19929;-78
2023/12/05 09:12:17;;;;;;;;;;;;;;;-8.29;75.51;100094.25;5025472;28;19936;-78
2023/12/05 09:14:43;;;;;;;;;;;;;;;-8.17;75.43;100094.91;5022602;28;19928;-78
2023/12/05 09:17:09;;;;;;;;;;;;;;;-8.19;75.10;100094.22;5021708;28;19935;-78
2023/12/05 09:19:36;;;;;;;;;;;;;;;-8.21;74.96;100094.38;5004625;28;20447;-77
2023/12/05 09:22:02;;;;;;;;;;;;;;;-8.16;75.42;100093.94;5024129;28;20315;-78
2023/12/05 09:24:28;;;;;;;;;;;;;;;-8.13;75.07;100097.09;5024109;28;19933;-78
2023/12/05 09:26:54;;;;;;;;;;;;;;;-8.14;75.23;100099.94;5021736;28;19928;-77
2023/12/05 09:29:20;;;;;;;;;;;;;;;-8.14;75.21;100102.59;5020102;28;19936;-78
2023/12/05 09:31:46;;;;;;;;;;;;;;;-8.07;75.23;100105.50;5024601;28;19929;-78
2023/12/05 09:34:13;;;;;;;;;;;;;;;-8.03;75.30;100099.75;5026349;28;20008;-78
2023/12/05 09:36:41;;;;;;;;;;;;;;;-8.04;75.13;100108.69;5027003;28;20311;-78
2023/12/05 09:39:07;;;;;;;;;;;;;;;-8.06;74.98;100120.44;5025144;28;19941;-78
2023/12/05 09:41:37;;;;;;;;;;;;;;;-8.13;74.94;100115.69;5025863;28;19937;-74
2023/12/05 09:44:04;;;;;;;;;;;;;;;-8.23;75.33;100116.72;5018607;28;20027;-74
2023/12/05 09:46:35;;;;;;;;;;;;;;;-8.16;75.37;100115.97;4985835;28;19940;-74
2023/12/05 09:49:04;;;;;;;;;;;;;;;-8.07;75.24;100111.63;5004393;28;20019;-74
2023/12/05 09:51:30;;;;;;;;;;;;;;;-8.04;75.21;100106.03;5020048;28;19937;-78
2023/12/05 09:53:58;;;;;;;;;;;;;;;-8.06;74.99;100115.13;5023958;28;20415;-77
2023/12/05 09:56:25;;;;;;;;;;;;;;;-8.04;75.48;100123.78;5019104;28;19955;-77
2023/12/05 09:58:51;;;;;;;;;;;;;;;-7.92;75.33;100119.09;5014690;28;19951;-77
2023/12/05 10:01:19;;;;;;;;;;;;;;;-7.83;75.45;100120.91;5017499;28;20099;-77
2023/12/05 10:03:48;;;;;;;;;;;;;;;-7.87;75.13;100117.69;5020406;28;19965;-75
2023/12/05 10:06:15;;;;;;;;;;;;;;;-7.86;75.44;100122.00;5027076;28;19964;-74
2023/12/05 10:08:41;;;;;;;;;;;;;;;-7.78;74.96;100108.00;5023693;28;19935;-74
2023/12/05 10:11:10;;;;;;;;;;;;;;;-7.78;74.81;100117.81;5022234;28;19929;-74
2023/12/05 10:13:38;;;;;;;;;;;;;;;-7.85;75.08;100118.38;5019242;28;19937;-78
2023/12/05 10:16:05;;;;;;;;;;;;;;;-7.92;74.96;100125.28;5025012;28;19929;-78
2023/12/05 10:18:32;;;;;;;;;;;;;;;-7.90;74.93;100125.97;5027294;28;19982;-77
2023/12/05 10:20:58;;;;;;;;;;;;;;;-7.85;74.72;100125.53;5018261;28;19987;-74
2023/12/05 10:23:24;;;;;;;;;;;;;;;-7.86;75.02;100121.19;5022030;28;20395;-74
2023/12/05 10:25:52;;;;;;;;;;;;;;;-7.84;74.92;100121.88;5020614;28;21306;-74
2023/12/05 10:28:20;;;;;;;;;;;;;;;-7.81;75.02;100129.56;5004903;28;19940;-74
2023/12/05 10:30:46;;;;;;;;;;;;;;;-7.76;74.66;100139.75;5021664;28;19952;-75
2023/12/05 10:33:13;;;;;;;;;;;;;;;-7.82;74.39;100130.53;5015580;28;20384;-74
2023/12/05 10:35:43;;;;;;;;;;;;;;;-7.88;74.28;100133.75;5002623;28;19990;-74
2023/12/05 10:38:10;;;;;;;;;;;;;;;-7.97;74.79;100140.78;5019347;28;20016;-74
2023/12/05 10:40:51;;;;;;;;;;;;;;;-8.04;74.50;100137.91;4997337;28;19929;-75
2023/12/05 10:43:18;;;;;;;;;;;;;;;-8.22;74.92;100148.41;4998366;28;20281;-74
2023/12/05 10:45:45;;;;;;;;;;;;;;;-8.24;75.27;100149.53;4996517;28;19929;-74
2023/12/05 10:48:13;;;;;;;;;;;;;;;-8.25;75.49;100151.38;5011987;28;19936;-74
2023/12/05 10:50:39;;;;;;;;;;;;;;;-8.32;75.67;100152.91;5015036;28;20289;-74
2023/12/05 10:53:06;;;;;;;;;;;;;;;-8.22;76.04;100158.19;5015037;28;19929;-75
2023/12/05 10:55:32;;;;;;;;;;;;;;;-8.18;75.86;100157.75;5011590;28;19929;-75
2023/12/05 10:57:58;;;;;;;;;;;;;;;-8.19;76.01;100160.56;5013478;28;19929;-74
2023/12/05 11:00:25;;;;;;;;;;;;;;;-8.15;75.79;100170.72;5015298;28;19930;-74
2023/12/05 11:02:54;;;;;;;;;;;;;;;-8.12;75.79;100175.78;5009666;28;19936;-74
2023/12/05 11:05:21;;;;;;;;;;;;;;;-8.18;75.51;100170.22;5016168;28;19929;-74
2023/12/05 11:07:47;;;;;;;;;;;;;;;-8.19;75.94;100168.53;5006061;28;19963;-74
2023/12/05 11:10:13;;;;;;;;;;;;;;;-8.16;75.89;100169.06;5010535;28;20048;-74
2023/12/05 11:12:40;;;;;;;;;;;;;;;-8.14;75.74;100172.41;5013405;28;19982;-74
2023/12/05 11:15:07;;;;;;;;;;;;;;;-8.14;76.08;100171.59;5016232;28;19934;-74
2023/12/05 11:17:35;;;;;;;;;;;;;;;-8.12;75.93;100174.94;5025815;28;20299;-75
2023/12/05 11:20:10;;;;;;;;;;;;;;;-8.22;75.71;100180.25;5017942;28;20450;-74
2023/12/05 11:22:45;;;;;;;;;;;;;;;-8.24;76.38;100176.91;5010253;28;19929;-74
2023/12/05 11:25:37;;;;;;;;;;;;;;;-8.29;76.19;100179.13;5000812;28;19963;-74
2023/12/05 11:28:12;;;;;;;;;;;;;;;-8.41;75.74;100186.44;5002206;28;19930;-74
2023/12/05 11:31:02;;;;;;;;;;;;;;;-8.66;77.14;100191.38;5017728;28;19936;-74
2023/12/05 11:33:40;;;;;;;;;;;;;;;-8.80;77.83;100192.63;5022741;28;19933;-74
2023/12/05 11:36:13;;;;;;;;;;;;;;;-8.87;77.87;100180.91;5019532;28;20130;-75
2023/12/05 11:38:40;;;;;;;;;;;;;;;-8.85;77.76;100198.34;5019959;28;20022;-74
2023/12/05 11:41:10;;;;;;;;;;;;;;;-8.86;78.37;100203.78;5005069;28;19933;-75
2023/12/05 11:43:36;;;;;;;;;;;;;;;-8.86;78.20;100209.09;5021918;28;19935;-75
2023/12/05 11:46:02;;;;;;;;;;;;;;;-8.94;78.14;100216.88;5016762;28;20039;-74
2023/12/05 11:48:29;;;;;;;;;;;;;;;-8.98;78.46;100218.97;5004669;28;19936;-75
2023/12/05 11:50:56;;;;;;;;;;;;;;;-8.86;79.01;100227.66;5022158;28;19936;-74
2023/12/05 11:53:23;;;;;;;;;;;;;;;-8.75;78.55;100219.53;5020941;28;19969;-74
2023/12/05 11:55:49;;;;;;;;;;;;;;;-8.62;78.25;100226.41;5021574;28;19968;-74
2023/12/05 11:58:26;;;;;;;;;;;;;;;-8.53;78.10;100228.22;5017984;28;20030;-74
2023/12/05 12:01:00;;;;;;;;;;;;;;;-8.41;77.72;100227.06;5014612;28;19930;-74
2023/12/05 12:03:26;;;;;;;;;;;;;;;-8.36;77.45;100231.94;5003518;28;19969;-74
2023/12/05 12:06:00;;;;;;;;;;;;;;;-8.31;77.38;100239.47;5015248;28;19998;-75
2023/12/05 12:08:28;;;;;;;;;;;;;;;-8.22;77.13;100241.28;5020086;28;19929;-74
2023/12/05 12:10:55;;;;;;;;;;;;;;;-8.14;77.14;100246.72;5003389;28;19978;-74
2023/12/05 12:13:22;;;;;;;;;;;;;;;-8.15;76.87;100246.88;5021840;28;19936;-75
2023/12/05 12:15:48;;;;;;;;;;;;;;;-8.25;76.69;100241.59;5001645;28;19929;-74
2023/12/05 12:18:13;;;;;;;;;;;;;;;-8.17;77.04;100251.50;5019754;28;19928;-74
2023/12/05 12:20:40;;;;;;;;;;;;;;;-8.20;76.82;100260.56;5016553;28;20181;-74
2023/12/05 12:23:07;;;;;;;;;;;;;;;-8.28;77.04;100260.41;5020049;28;19944;-75
2023/12/05 12:25:50;;;;;;;;;;;;;;;-8.29;77.39;100267.56;5003715;28;19948;-74
2023/12/05 12:28:23;;;;;;;;;;;;;;;-8.28;77.15;100265.72;5023266;28;20019;-75
2023/12/05 12:30:50;;;;;;;;;;;;;;;-8.27;77.29;100265.59;5021498;28;19937;-74
2023/12/05 12:33:19;;;;;;;;;;;;;;;-8.23;77.28;100263.50;5019113;28;19936;-74
2023/12/05 12:35:50;;;;;;;;;;;;;;;-8.22;77.04;100273.13;5019856;28;19929;-75
2023/12/05 12:38:16;;;;;;;;;;;;;;;-8.22;77.11;100266.97;5020874;28;20280;-74
2023/12/05 12:40:42;;;;;;;;;;;;;;;-8.23;77.16;100268.81;4999518;28;20423;-74